MDT,Max TemperatureF,Mean TemperatureF,Min TemperatureF,Max Dew PointF,MeanDew PointF,Min DewpointF,Max Humidity, Mean Humidity, Min Humidity, Max Sea Level PressureIn, Mean Sea Level PressureIn, Min Sea Level PressureIn, Max VisibilityMiles, Mean VisibilityMiles, Min VisibilityMiles, Max Wind SpeedMPH, Mean Wind SpeedMPH, Max Gust SpeedMPH,PrecipitationIn, CloudCover, Events, WindDirDegrees
2012-3-1,44,36,27,22,7,-7,63,38,12,29.81,29.74,29.64,10,10,10,22,10,29,0.00,0,,294
2012-3-2,38,28,18,15,10,3,68,46,24,30.10,30.00,29.83,10,10,10,33,12,45,0.00,2,,299
2012-3-3,49,35,20,24,13,6,57,40,23,30.14,30.00,29.88,10,10,10,36,18,49,0.00,4,,289
2012-3-4,59,45,30,28,23,18,70,46,21,30.11,30.01,29.88,10,10,10,33,16,46,0.00,2,,295
2012-3-5,65,44,23,22,18,13,75,45,15,30.01,29.85,29.65,10,10,10,35,14,47,0.00,0,,239
2012-3-6,73,52,31,31,16,-3,76,41,5,29.63,29.49,29.28,10,10,10,30,14,43,0.00,1,,250
2012-3-7,38,31,24,22,16,11,72,54,35,30.34,29.98,29.65,10,10,10,30,11,39,0.00,6,,328
2012-3-8,51,34,17,16,10,5,74,45,16,30.53,30.46,30.37,10,10,10,16,6,23,0.00,0,,292
2012-3-9,67,41,15,20,13,6,74,42,10,30.49,30.30,30.06,10,10,10,16,5,21,0.00,0,,189
2012-3-10,73,48,23,37,18,6,74,41,8,30.04,29.89,29.74,10,10,10,18,6,22,0.00,0,,177
2012-3-11,67,48,29,37,27,17,96,56,16,29.72,29.63,29.49,10,9,2,16,6,21,0.00,0,,198
2012-3-12,69,52,34,21,18,15,48,31,13,29.87,29.75,29.57,10,10,10,28,11,36,0.00,0,,267
2012-3-13,76,51,25,23,15,5,68,38,7,29.86,29.77,29.63,10,10,10,35,10,41,0.00,0,,180
2012-3-14,75,54,32,21,15,3,51,29,7,29.93,29.83,29.72,10,10,10,25,8,33,0.00,0,,259
2012-3-15,73,57,41,30,27,24,46,32,17,30.02,29.91,29.85,10,10,10,16,7,23,0.00,0,,272
2012-3-16,78,55,32,29,22,17,70,40,10,29.87,29.72,29.60,10,10,10,29,10,37,0.00,0,,227
2012-3-17,80,56,31,26,20,13,61,35,9,29.68,29.54,29.41,10,10,10,28,7,36,0.00,0,,133
2012-3-18,78,54,30,31,20,12,63,36,9,29.46,29.32,29.13,10,10,4,47,17,59,0.00,1,,178
2012-3-19,55,43,30,26,14,2,75,44,12,29.71,29.50,29.33,10,10,10,31,12,39,0.00,1,,272
2012-3-20,57,40,23,24,16,1,88,49,10,30.05,29.92,29.73,10,10,9,20,7,30,0.00,0,,266
2012-3-21,67,44,21,20,13,10,62,37,12,30.04,29.97,29.92,10,10,10,16,6,24,0.00,0,,359
2012-3-22,70,46,22,44,20,9,100,55,9,30.04,29.93,29.83,10,10,2,13,4,21,0.00,0,,41
2012-3-23,77,56,35,43,36,26,100,58,16,29.99,29.90,29.78,10,5,0,17,6,22,0.00,2,Fog,101
2012-3-24,69,53,36,41,34,30,85,56,26,30.09,30.01,29.87,10,10,10,21,8,26,0.00,0,,54
2012-3-25,76,55,33,48,40,29,92,63,34,30.07,29.93,29.81,10,10,9,20,9,24,0.00,0,,110
2012-3-26,84,64,43,50,32,5,100,54,7,29.77,29.61,29.27,10,6,0,46,18,61,0.00,2,Fog,157
2012-3-27,68,55,41,20,17,15,39,27,14,29.94,29.85,29.66,10,10,10,35,17,45,0.00,0,,274
2012-3-28,79,55,31,32,21,14,54,32,9,29.94,29.80,29.67,10,10,10,21,6,28,0.00,0,,148
2012-3-29,70,60,49,38,25,9,61,35,9,29.86,29.76,29.67,10,10,10,22,10,29,0.00,1,,287
2012-3-30,77,61,44,30,26,21,49,31,12,29.75,29.69,29.62,10,10,10,30,13,38,0.00,1,,254
2012-3-31,85,65,45,33,30,25,50,31,12,29.78,29.63,29.44,10,10,10,24,10,39,0.00,0,,228